Time;durP1;ratioP1;P1;durP2;ratioP2;P2;SDS_P1;SDS_P2;PMS_P1;PMS_P2;Temp;Humidity;BMP_temperature;BMP_pressure;BME280_temperature;BME280_humidity;BME280_pressure;Samples;Min_cycle;Max_cycle;Signal;HPM_P1;HPM_P2
2021/06/28 00:00:43;;;;;;;;;3.50;1.50;;;;;25.84;48.37;101133.03;5061021;28;47547;-67
2021/06/28 00:03:10;;;;;;;;;2.00;2.00;;;;;25.93;48.43;101152.34;5062143;28;45286;-68
2021/06/28 00:05:36;;;;;;;;;1.25;1.25;;;;;25.67;48.21;101126.38;5060730;28;45481;-67
2021/06/28 00:08:02;;;;;;;;;1.25;1.25;;;;;25.90;48.08;101163.38;5062173;28;45398;-68
2021/06/28 00:10:30;;;;;;;;;0.75;0.75;;;;;26.02;48.19;101168.97;5081008;27;48482;-68
2021/06/28 00:12:58;;;;;;;;;3.00;2.00;;;;;25.94;48.04;101155.84;5082734;28;45318;-67
2021/06/28 00:15:28;;;;;;;;;2.50;1.25;;;;;25.95;47.86;101160.13;5082510;28;45231;-68
2021/06/28 00:17:54;;;;;;;;;3.25;2.00;;;;;25.75;48.51;101102.25;5081219;27;45464;-68
2021/06/28 00:20:20;;;;;;;;;2.75;2.75;;;;;26.05;48.01;101146.41;5080388;28;48107;-68
2021/06/28 00:22:46;;;;;;;;;3.00;3.00;;;;;26.07;48.17;101147.84;5082656;28;45257;-68
2021/06/28 00:25:17;;;;;;;;;0.75;0.75;;;;;25.95;47.81;101126.28;5081137;28;45310;-68
2021/06/28 00:27:43;;;;;;;;;2.75;2.00;;;;;26.13;47.67;101145.41;5080992;28;45425;-68
2021/06/28 00:30:12;;;;;;;;;2.50;2.50;;;;;26.06;47.75;101137.41;5066479;28;45372;-68
2021/06/28 00:32:39;;;;;;;;;1.75;1.75;;;;;25.84;47.75;101108.22;5062068;28;45462;-67
2021/06/28 00:35:06;;;;;;;;;0.25;0.25;;;;;26.18;47.66;101151.78;5061568;28;45307;-68
2021/06/28 00:37:32;;;;;;;;;1.75;1.75;;;;;25.83;47.63;101093.25;5062458;28;45497;-67
2021/06/28 00:39:57;;;;;;;;;1.00;1.00;;;;;25.90;47.57;101101.25;5061707;28;45475;-68
2021/06/28 00:42:25;;;;;;;;;2.00;2.00;;;;;26.22;47.89;101157.56;5061995;28;45367;-67
2021/06/28 00:44:52;;;;;;;;;3.00;3.00;;;;;26.16;47.67;101142.34;5077097;28;45444;-68
2021/06/28 00:47:18;;;;;;;;;1.75;1.75;;;;;25.98;47.54;101100.25;5061774;28;45257;-68
2021/06/28 00:49:44;;;;;;;;;1.00;1.00;;;;;26.13;47.60;101124.91;5061933;28;46570;-68
2021/06/28 00:52:10;;;;;;;;;2.00;2.00;;;;;25.98;47.62;101100.25;5081420;28;45202;-68
2021/06/28 00:54:37;;;;;;;;;2.00;2.00;;;;;26.06;47.52;101108.06;5081961;28;45488;-68
2021/06/28 00:57:03;;;;;;;;;1.50;1.50;;;;;26.28;47.41;101138.06;5081978;28;45321;-68
2021/06/28 00:59:31;;;;;;;;;3.00;2.00;;;;;26.22;47.16;101140.72;5076285;28;47732;-67
2021/06/28 01:01:58;;;;;;;;;1.75;1.75;;;;;26.30;47.76;101161.88;5061237;28;45357;-67
2021/06/28 01:04:24;;;;;;;;;1.00;1.00;;;;;26.05;47.34;101125.06;5061084;28;45318;-67
2021/06/28 01:06:49;;;;;;;;;2.00;2.00;;;;;25.93;47.39;101095.53;5059753;28;45274;-67
2021/06/28 01:09:14;;;;;;;;;1.00;1.00;;;;;26.07;47.51;101118.53;5061155;28;45487;-68
2021/06/28 01:11:40;;;;;;;;;2.00;2.00;;;;;25.98;47.12;101109.06;5070303;28;45266;-68
2021/06/28 01:14:05;;;;;;;;;2.25;2.00;;;;;26.22;46.84;101140.72;5081560;28;45228;-68
2021/06/28 01:16:31;;;;;;;;;1.50;1.50;;;;;26.03;47.10;101105.81;5080525;28;45262;-68
2021/06/28 01:18:57;;;;;;;;;2.00;2.00;;;;;26.11;46.89;101118.13;5081350;28;46335;-68
2021/06/28 01:21:26;;;;;;;;;2.00;2.00;;;;;26.02;47.15;101107.66;5081216;28;45647;-68
2021/06/28 01:23:52;;;;;;;;;1.25;1.25;;;;;26.28;47.29;101140.72;5081546;28;45334;-68
2021/06/28 01:26:17;;;;;;;;;2.00;2.00;;;;;26.23;46.81;101129.03;5080002;28;45880;-68
2021/06/28 01:28:43;;;;;;;;;2.25;1.25;;;;;26.02;46.78;101104.97;5079907;28;47098;-68
2021/06/28 01:31:10;;;;;;;;;2.00;2.00;;;;;26.07;47.20;101107.84;5081467;28;45210;-68
2021/06/28 01:33:38;;;;;;;;;2.00;2.00;;;;;26.38;47.17;101161.69;5081378;27;45331;-68
2021/06/28 01:36:04;;;;;;;;;2.00;2.00;;;;;26.16;46.99;101121.84;5079635;28;45364;-68
2021/06/28 01:38:30;;;;;;;;;2.00;2.00;;;;;26.39;46.74;101166.00;5077105;27;47421;-68
2021/06/28 01:40:55;;;;;;;;;1.00;1.00;;;;;26.14;46.86;101126.56;5059562;28;45390;-68
2021/06/28 01:43:23;;;;;;;;;1.25;1.25;;;;;26.31;47.03;101152.84;5076182;28;45342;-68
2021/06/28 01:45:53;;;;;;;;;2.00;2.00;;;;;26.15;47.05;101122.06;5061093;28;45221;-68
2021/06/28 01:48:18;;;;;;;;;2.50;2.50;;;;;26.03;46.88;101103.97;5059871;28;45411;-68
2021/06/28 01:50:44;;;;;;;;;1.00;1.00;;;;;26.27;47.33;101141.75;5060468;28;45353;-68
2021/06/28 01:53:11;;;;;;;;;2.75;2.00;;;;;26.40;46.84;101154.31;5060767;28;45454;-68
2021/06/28 01:55:37;;;;;;;;;1.00;1.00;;;;;26.32;46.54;101135.00;5060679;28;45236;-68
2021/06/28 01:58:05;;;;;;;;;2.00;2.00;;;;;26.24;47.05;101133.34;5066076;28;45724;-68
2021/06/28 02:00:38;;;;;;;;;2.00;1.50;;;;;26.35;46.90;101153.25;5060637;28;45222;-68
2021/06/28 02:03:06;;;;;;;;;1.00;1.00;;;;;26.18;46.83;101105.63;5058840;28;45243;-68
2021/06/28 02:05:34;;;;;;;;;2.00;1.00;;;;;26.23;46.94;101103.16;5058887;28;45516;-68
2021/06/28 02:08:02;;;;;;;;;1.75;1.75;;;;;26.33;46.67;101121.47;5065946;28;47258;-68
2021/06/28 02:10:28;;;;;;;;;2.50;2.50;;;;;26.34;46.80;101123.09;5080485;27;45233;-68
2021/06/28 02:12:54;;;;;;;;;2.00;2.00;;;;;26.35;46.95;101113.25;5080463;28;45247;-68
2021/06/28 02:15:23;;;;;;;;;1.67;1.67;;;;;26.33;47.01;101101.97;5080680;28;45417;-68
2021/06/28 02:17:48;;;;;;;;;3.25;1.00;;;;;26.34;46.82;101109.75;5080684;28;46519;-68
2021/06/28 02:20:14;;;;;;;;;1.75;1.00;;;;;26.21;46.79;101094.56;5079992;28;45336;-68
2021/06/28 02:22:40;;;;;;;;;2.25;2.25;;;;;26.31;46.85;101093.34;5079680;28;45458;-68
2021/06/28 02:25:07;;;;;;;;;0.00;0.00;;;;;26.18;46.72;101071.78;5080817;28;45500;-68
2021/06/28 02:27:33;;;;;;;;;0.67;0.67;;;;;25.96;46.38;101037.31;5080382;28;46144;-68
2021/06/28 02:29:58;;;;;;;;;1.25;1.25;;;;;26.27;46.78;101074.25;5078764;28;45355;-68
2021/06/28 02:32:24;;;;;;;;;2.00;2.00;;;;;26.38;47.12;101095.00;5096505;27;45184;-68
2021/06/28 02:34:49;;;;;;;;;1.00;1.00;;;;;26.33;47.02;101076.13;5080307;28;45522;-68
2021/06/28 02:37:14;;;;;;;;;2.00;2.00;;;;;26.33;46.92;101086.78;5086289;27;47185;-68
2021/06/28 02:39:40;;;;;;;;;1.00;1.00;;;;;26.37;46.47;101106.69;5059889;28;45185;-68
2021/06/28 02:42:06;;;;;;;;;1.50;1.50;;;;;26.40;46.53;101103.63;5075720;28;45239;-68
2021/06/28 02:44:31;;;;;;;;;1.00;1.00;;;;;26.20;47.18;101068.09;5060182;28;45270;-68
2021/06/28 02:46:57;;;;;;;;;2.25;1.50;;;;;26.28;47.01;101087.38;5059916;28;45442;-68
2021/06/28 02:49:22;;;;;;;;;0.25;0.25;;;;;26.11;46.60;101056.81;5078322;28;45361;-68
2021/06/28 02:51:47;;;;;;;;;3.00;1.75;;;;;26.26;46.64;101080.63;5079914;28;45307;-68
2021/06/28 02:54:13;;;;;;;;;1.00;1.00;;;;;26.41;47.21;101115.13;5078809;28;45407;-68
2021/06/28 02:56:38;;;;;;;;;1.00;1.00;;;;;26.33;46.88;101097.47;5078624;28;48625;-68
2021/06/28 02:59:04;;;;;;;;;2.00;2.00;;;;;26.01;46.90;101043.88;5065674;28;45324;-68
2021/06/28 03:01:29;;;;;;;;;1.75;1.00;;;;;26.30;46.76;101081.88;5059928;28;45282;-68
2021/06/28 03:03:55;;;;;;;;;1.25;1.25;;;;;26.17;46.66;101051.50;5075128;28;45429;-68
2021/06/28 03:06:21;;;;;;;;;0.50;0.50;;;;;26.31;46.71;101067.47;5059323;28;45418;-68
2021/06/28 03:08:48;;;;;;;;;2.00;2.00;;;;;26.26;46.36;101076.09;5059501;28;45346;-68
2021/06/28 03:11:15;;;;;;;;;2.00;2.00;;;;;26.27;46.72;101076.94;5066644;28;45219;-68
2021/06/28 03:13:41;;;;;;;;;2.75;2.75;;;;;26.11;46.77;101044.28;5078436;28;45502;-68
2021/06/28 03:16:07;;;;;;;;;2.00;2.00;;;;;26.38;46.42;101076.34;5079745;28;45280;-68
2021/06/28 03:18:34;;;;;;;;;1.00;1.00;;;;;26.10;46.61;101031.19;5079713;28;45354;-68
2021/06/28 03:21:01;;;;;;;;;1.25;1.25;;;;;26.45;46.69;101078.19;5078377;28;45499;-68
2021/06/28 03:23:27;;;;;;;;;1.00;1.00;;;;;26.15;46.76;101028.72;5095390;27;45770;-68
2021/06/28 03:25:53;;;;;;;;;1.00;1.00;;;;;26.09;46.99;101016.19;5079545;28;45384;-68
2021/06/28 03:28:18;;;;;;;;;0.75;0.75;;;;;26.07;46.46;101022.53;5077754;28;45326;-68
2021/06/28 03:30:44;;;;;;;;;2.50;2.50;;;;;26.16;46.49;101031.19;5079878;28;45519;-68
2021/06/28 03:33:10;;;;;;;;;0.25;0.25;;;;;26.29;46.85;101049.03;5078564;28;45255;-68
2021/06/28 03:35:36;;;;;;;;;2.25;2.25;;;;;26.25;46.71;101050.47;5082781;28;45545;-68
2021/06/28 03:38:01;;;;;;;;;1.00;1.00;;;;;26.35;46.88;101066.06;5067199;28;45264;-68
2021/06/28 03:40:32;;;;;;;;;1.50;1.50;;;;;26.30;46.59;101057.84;5063038;28;45477;-68
2021/06/28 03:42:57;;;;;;;;;1.25;1.25;;;;;26.12;46.73;101040.63;5062885;28;45294;-68
2021/06/28 03:45:22;;;;;;;;;2.00;2.00;;;;;26.33;46.62;101062.78;5062169;28;45239;-68
2021/06/28 03:47:48;;;;;;;;;1.00;1.00;;;;;26.37;46.67;101068.53;5066642;28;45740;-68
2021/06/28 03:50:14;;;;;;;;;1.00;1.00;;;;;26.11;46.82;101038.13;5081545;28;45468;-68
2021/06/28 03:52:40;;;;;;;;;2.00;2.00;;;;;26.10;46.30;101031.97;5082934;28;45342;-68
2021/06/28 03:55:07;;;;;;;;;2.00;2.00;;;;;26.16;46.80;101036.50;5081562;28;48357;-68
2021/06/28 03:57:33;;;;;;;;;1.00;1.00;;;;;26.31;46.51;101067.47;5080627;28;45413;-68
2021/06/28 04:00:00;;;;;;;;;2.00;2.00;;;;;26.36;46.73;101072.22;5062630;28;45303;-68
2021/06/28 04:02:26;;;;;;;;;1.75;1.75;;;;;26.46;46.63;101090.53;5062297;28;45246;-68
2021/06/28 04:04:52;;;;;;;;;1.75;1.75;;;;;26.15;46.64;101048.19;5060702;28;47438;-68
2021/06/28 04:07:18;;;;;;;;;2.00;2.00;;;;;26.46;46.73;101109.19;5061629;28;45472;-68
2021/06/28 04:09:43;;;;;;;;;1.50;1.50;;;;;26.28;46.68;101076.72;5062329;28;45200;-68
2021/06/28 04:12:11;;;;;;;;;2.50;2.50;;;;;26.13;46.80;101046.75;5076881;28;45580;-68
2021/06/28 04:14:37;;;;;;;;;2.00;2.00;;;;;26.36;46.55;101083.69;5081184;28;48680;-68
2021/06/28 04:17:04;;;;;;;;;2.00;2.00;;;;;26.47;46.46;101102.81;5082372;28;45291;-68
2021/06/28 04:19:30;;;;;;;;;2.00;2.00;;;;;26.20;46.74;101068.09;5080899;28;45322;-68
2021/06/28 04:21:55;;;;;;;;;1.75;1.75;;;;;26.15;46.46;101064.19;5081807;28;45424;-68
2021/06/28 04:24:21;;;;;;;;;1.25;1.25;;;;;26.29;46.77;101075.69;5081265;28;47195;-68
2021/06/28 04:26:46;;;;;;;;;2.00;2.00;;;;;26.13;46.56;101049.41;5082336;28;45280;-68
2021/06/28 04:29:11;;;;;;;;;1.50;1.25;;;;;26.38;46.57;101089.69;5082592;28;45501;-68
2021/06/28 04:31:37;;;;;;;;;1.50;1.50;;;;;26.48;46.53;101112.47;5080950;28;45178;-68
2021/06/28 04:34:03;;;;;;;;;2.00;2.00;;;;;26.16;46.53;101071.19;5082473;28;45550;-68
2021/06/28 04:36:29;;;;;;;;;1.00;1.00;;;;;26.31;46.64;101104.03;5080590;28;45298;-68
2021/06/28 04:38:55;;;;;;;;;2.00;2.00;;;;;26.17;46.47;101080.81;5062133;28;45359;-69
2021/06/28 04:41:20;;;;;;;;;1.00;1.00;;;;;26.42;46.65;101127.41;5061797;28;45476;-68
2021/06/28 04:43:46;;;;;;;;;1.75;1.75;;;;;26.20;46.66;101103.59;5061830;28;45573;-68
2021/06/28 04:46:11;;;;;;;;;3.00;2.00;;;;;26.21;46.06;101107.91;5060821;28;45188;-68
2021/06/28 04:48:36;;;;;;;;;2.00;2.00;;;;;26.18;46.76;101105.63;5061620;28;45283;-68
2021/06/28 04:51:02;;;;;;;;;2.00;2.00;;;;;26.12;46.56;101093.13;5061082;28;45377;-68
2021/06/28 04:53:27;;;;;;;;;2.50;2.50;;;;;26.39;46.82;101141.97;5060284;28;46707;-68
2021/06/28 04:55:53;;;;;;;;;2.00;2.00;;;;;26.32;46.59;101146.50;5077124;28;45430;-68
2021/06/28 04:58:18;;;;;;;;;1.00;1.00;;;;;26.12;46.25;101119.78;5065046;28;45390;-68
2021/06/28 05:00:43;;;;;;;;;1.00;1.00;;;;;26.14;46.38;101115.88;5059855;28;45512;-68
2021/06/28 05:03:09;;;;;;;;;2.00;2.00;;;;;26.45;46.71;101167.06;5060920;28;46319;-68
2021/06/28 05:05:34;;;;;;;;;3.75;3.75;;;;;26.10;46.47;101103.97;5060906;28;45437;-68
2021/06/28 05:08:00;;;;;;;;;2.00;2.00;;;;;26.27;46.80;101147.09;5061558;28;45506;-68
2021/06/28 05:10:25;;;;;;;;;2.25;1.50;;;;;26.34;46.45;101163.09;5060158;28;45402;-68
2021/06/28 05:12:50;;;;;;;;;2.25;2.00;;;;;26.04;46.61;101112.78;5081670;28;45569;-68
2021/06/28 05:15:16;;;;;;;;;1.50;1.00;;;;;26.09;46.73;101115.69;5075983;27;45493;-68
2021/06/28 05:17:42;;;;;;;;;2.00;2.00;;;;;26.17;46.19;101128.81;5061539;28;45236;-68
2021/06/28 05:20:09;;;;;;;;;2.50;2.50;;;;;26.46;46.36;101166.06;5059607;28;45517;-70
2021/06/28 05:22:35;;;;;;;;;2.75;2.75;;;;;26.38;46.55;101153.69;5059784;28;47793;-72
2021/06/28 05:25:00;;;;;;;;;1.00;1.00;;;;;26.36;46.41;101158.38;5059578;28;45185;-69
2021/06/28 05:27:26;;;;;;;;;2.00;2.00;;;;;26.31;46.23;101154.69;5070629;28;45248;-68
2021/06/28 05:29:55;;;;;;;;;2.00;2.00;;;;;26.47;46.63;101182.84;5073543;27;45494;-68
2021/06/28 05:32:22;;;;;;;;;2.25;2.00;;;;;26.47;46.44;101180.19;5075511;28;47383;-68
2021/06/28 05:34:49;;;;;;;;;1.00;1.00;;;;;26.34;46.54;101156.94;5071060;27;45531;-68
2021/06/28 05:37:15;;;;;;;;;2.00;2.00;;;;;26.33;46.66;101152.66;5079468;27;45464;-68
2021/06/28 05:39:40;;;;;;;;;2.00;2.00;;;;;26.49;46.58;101183.50;5080327;27;45537;-68
2021/06/28 05:42:06;;;;;;;;;1.25;1.25;;;;;26.34;46.60;101160.44;5079131;27;47126;-68
2021/06/28 05:44:31;;;;;;;;;2.75;2.75;;;;;26.10;46.68;101119.97;5076967;28;45463;-68
2021/06/28 05:46:57;;;;;;;;;2.50;2.00;;;;;26.33;46.54;101148.16;5078649;28;45338;-68
2021/06/28 05:49:22;;;;;;;;;2.00;2.00;;;;;26.46;46.77;101168.72;5065917;28;45450;-70
2021/06/28 05:51:48;;;;;;;;;1.25;1.00;;;;;26.10;46.73;101117.31;5064113;28;45488;-68
2021/06/28 05:54:13;;;;;;;;;2.00;2.00;;;;;26.35;47.18;101145.25;5069245;28;45415;-68
2021/06/28 05:56:38;;;;;;;;;1.50;1.50;;;;;26.27;46.91;101128.44;5069182;28;45548;-68
2021/06/28 05:59:04;;;;;;;;;1.50;1.00;;;;;26.36;46.55;101147.72;5070874;28;45679;-68
2021/06/28 06:01:29;;;;;;;;;2.50;1.25;;;;;26.48;46.77;101168.50;5081739;27;47081;-68
2021/06/28 06:03:58;;;;;;;;;2.00;2.00;;;;;26.28;46.72;101148.72;5058477;28;45416;-68
2021/06/28 06:06:23;;;;;;;;;1.75;1.75;;;;;26.25;46.56;101135.00;5059242;28;45477;-68
2021/06/28 06:08:51;;;;;;;;;2.00;2.00;;;;;26.43;46.88;101153.09;5058773;28;45469;-67
2021/06/28 06:11:17;;;;;;;;;1.75;1.00;;;;;26.34;47.00;101143.59;5066442;28;46985;-71
2021/06/28 06:13:45;;;;;;;;;2.00;2.00;;;;;26.47;46.63;101170.34;5079023;28;46095;-72
2021/06/28 06:16:10;;;;;;;;;2.00;2.00;;;;;26.46;47.18;101167.88;5079227;28;45280;-72
2021/06/28 06:18:36;;;;;;;;;1.25;1.25;;;;;26.47;46.91;101165.00;5080567;28;45654;-72
2021/06/28 06:21:01;;;;;;;;;2.00;2.00;;;;;26.26;46.70;101144.63;5080547;28;45338;-71
2021/06/28 06:23:27;;;;;;;;;1.00;0.50;;;;;26.32;46.66;101159.81;5080592;28;45246;-72
2021/06/28 06:25:52;;;;;;;;;1.75;1.75;;;;;26.38;46.64;101152.88;5096100;27;45232;-72
2021/06/28 06:28:18;;;;;;;;;2.00;1.50;;;;;26.34;46.53;101151.59;5080176;28;45391;-72
2021/06/28 06:30:43;;;;;;;;;3.00;3.00;;;;;26.33;46.57;101155.31;5096323;27;48138;-72
2021/06/28 06:33:10;;;;;;;;;1.75;1.75;;;;;26.41;46.37;101185.28;5080422;28;45310;-72
2021/06/28 06:35:36;;;;;;;;;1.00;1.00;;;;;26.18;46.70;101159.78;5079198;28;45220;-72
2021/06/28 06:38:02;;;;;;;;;2.00;2.00;;;;;26.39;46.53;101195.34;5066980;28;45230;-72
2021/06/28 06:40:28;;;;;;;;;2.00;1.00;;;;;26.23;46.58;101177.06;5061937;28;47465;-72
2021/06/28 06:42:55;;;;;;;;;1.00;1.00;;;;;26.50;46.53;101219.81;5080210;28;45414;-72
2021/06/28 06:45:22;;;;;;;;;2.00;2.00;;;;;26.39;47.19;101216.69;5079961;28;45469;-71
2021/06/28 06:47:48;;;;;;;;;2.00;1.50;;;;;26.45;47.02;101224.94;5080299;28;45304;-71
2021/06/28 06:50:16;;;;;;;;;3.00;3.00;;;;;26.16;46.77;101190.34;5078297;28;46840;-72
2021/06/28 06:52:42;;;;;;;;;2.00;2.00;;;;;26.50;46.44;101244.66;5080071;27;45268;-71
2021/06/28 06:55:09;;;;;;;;;3.75;2.00;;;;;26.31;46.59;101210.72;5080297;28;45529;-72
2021/06/28 06:57:36;;;;;;;;;1.00;1.00;;;;;26.45;46.15;101241.75;5079504;27;45508;-72
2021/06/28 07:00:04;;;;;;;;;2.00;2.00;;;;;26.13;46.49;101182.75;5059541;28;46204;-72
2021/06/28 07:02:30;;;;;;;;;2.00;2.00;;;;;26.31;46.73;101211.50;5059011;28;45425;-72
2021/06/28 07:04:56;;;;;;;;;1.75;1.75;;;;;26.24;46.42;101200.00;5059836;28;45174;-72
2021/06/28 07:07:22;;;;;;;;;2.75;1.75;;;;;26.45;46.55;101238.25;5059575;28;45385;-72
2021/06/28 07:09:47;;;;;;;;;1.00;1.00;;;;;26.41;46.48;101241.28;5060841;28;47184;-72
2021/06/28 07:12:13;;;;;;;;;2.00;2.00;;;;;26.23;46.54;101217.84;5077026;28;45362;-72
2021/06/28 07:14:38;;;;;;;;;3.00;2.00;;;;;26.20;46.77;101209.44;5083573;27;45324;-72
2021/06/28 07:17:04;;;;;;;;;2.25;2.25;;;;;26.45;46.35;101240.94;5083470;28;45373;-72
2021/06/28 07:19:29;;;;;;;;;1.00;1.00;;;;;26.41;46.97;101238.63;5099260;27;48416;-71
2021/06/28 07:21:55;;;;;;;;;2.00;2.00;;;;;26.40;46.48;101239.66;5083120;28;45355;-71
2021/06/28 07:24:21;;;;;;;;;2.50;2.50;;;;;26.43;46.24;101245.63;5099297;27;45332;-72
2021/06/28 07:26:47;;;;;;;;;3.00;3.00;;;;;26.50;46.27;101268.66;5083402;28;45263;-72
2021/06/28 07:29:12;;;;;;;;;1.00;1.00;;;;;26.41;46.23;101257.31;5083365;28;45285;-72
2021/06/28 07:31:38;;;;;;;;;3.00;3.00;;;;;26.24;46.34;101229.34;5080361;28;45859;-72
2021/06/28 07:34:03;;;;;;;;;2.00;2.00;;;;;26.27;46.86;101228.94;5062894;28;45427;-72
2021/06/28 07:36:29;;;;;;;;;2.00;2.00;;;;;26.17;46.57;101206.16;5063798;28;45224;-71
2021/06/28 07:38:56;;;;;;;;;2.00;2.00;;;;;26.39;46.38;101248.69;5062900;28;45374;-71
2021/06/28 07:41:21;;;;;;;;;2.00;2.00;;;;;26.49;46.41;101261.66;5062714;28;45234;-72
2021/06/28 07:43:47;;;;;;;;;2.75;2.00;;;;;26.39;46.69;101242.53;5061620;28;45429;-71
2021/06/28 07:46:12;;;;;;;;;1.75;1.75;;;;;26.40;46.57;101246.84;5062684;28;45496;-72
2021/06/28 07:48:38;;;;;;;;;2.00;2.00;;;;;26.39;46.33;101247.84;5062825;28;46407;-72
2021/06/28 07:51:03;;;;;;;;;3.00;3.00;;;;;26.49;46.47;101268.88;5062078;28;45264;-72
2021/06/28 07:53:29;;;;;;;;;2.00;2.00;;;;;26.50;46.44;101268.66;5061495;28;45483;-72
2021/06/28 07:55:54;;;;;;;;;2.00;2.00;;;;;26.39;46.42;101256.69;5061344;28;45865;-72
2021/06/28 07:58:22;;;;;;;;;2.00;2.00;;;;;26.36;46.49;101248.28;5066274;28;47022;-72
2021/06/28 08:00:48;;;;;;;;;2.25;2.00;;;;;26.42;46.53;101258.13;5061298;28;45205;-72
2021/06/28 08:03:13;;;;;;;;;2.00;2.00;;;;;26.53;46.04;101275.44;5075810;28;45763;-72
2021/06/28 08:05:41;;;;;;;;;1.25;1.25;;;;;26.33;46.40;101246.00;5071754;28;45442;-72
2021/06/28 08:08:09;;;;;;;;;3.00;3.00;;;;;26.45;46.54;101271.09;5078240;28;48317;-72
2021/06/28 08:10:35;;;;;;;;;3.50;2.00;;;;;26.15;46.29;101231.38;5079513;28;45393;-72
2021/06/28 08:13:00;;;;;;;;;2.00;2.00;;;;;26.37;46.84;101268.59;5082704;28;45385;-72
2021/06/28 08:15:26;;;;;;;;;3.50;3.00;;;;;26.25;46.11;101250.50;5082798;28;45322;-72
2021/06/28 08:17:52;;;;;;;;;2.75;2.75;;;;;26.19;46.60;101237.94;5082858;28;45392;-71
2021/06/28 08:20:19;;;;;;;;;2.75;2.75;;;;;26.27;46.25;101245.78;5081484;28;45255;-72
2021/06/28 08:22:46;;;;;;;;;2.75;2.75;;;;;26.05;46.45;101215.72;5083229;27;45243;-72
2021/06/28 08:25:13;;;;;;;;;2.50;2.50;;;;;26.33;46.54;101254.00;5070617;28;45300;-72
2021/06/28 08:27:39;;;;;;;;;2.50;2.50;;;;;26.33;46.54;101254.84;5060727;28;48355;-72
2021/06/28 08:30:08;;;;;;;;;2.50;2.00;;;;;26.18;46.18;101225.63;5061562;28;45347;-72
2021/06/28 08:32:34;;;;;;;;;3.00;3.00;;;;;26.31;45.87;101242.72;5067430;28;45301;-72
2021/06/28 08:35:00;;;;;;;;;2.75;2.75;;;;;26.49;46.17;101283.00;5091086;27;45199;-72
2021/06/28 08:37:27;;;;;;;;;2.25;2.25;;;;;26.49;46.12;101268.88;5072555;28;45300;-72
2021/06/28 08:39:53;;;;;;;;;2.00;2.00;;;;;26.29;46.02;101242.91;5061824;28;45358;-72
2021/06/28 08:42:21;;;;;;;;;4.50;3.75;;;;;26.35;46.08;101243.97;5060663;28;45390;-72
2021/06/28 08:44:47;;;;;;;;;2.00;2.00;;;;;26.59;46.01;101281.81;5061710;28;45411;-72
2021/06/28 08:47:13;;;;;;;;;3.00;2.00;;;;;26.50;45.82;101279.34;5060363;27;48153;-72
2021/06/28 08:49:48;;;;;;;;;2.00;2.00;;;;;26.44;46.37;101265.97;5061494;28;45217;-71
2021/06/28 08:52:13;;;;;;;;;2.75;1.50;;;;;26.45;45.69;101272.94;5077519;28;45235;-72
2021/06/28 08:54:39;;;;;;;;;2.75;2.75;;;;;26.47;46.05;101271.72;5061548;28;45322;-72
2021/06/28 08:57:05;;;;;;;;;2.00;2.00;;;;;26.27;45.90;101232.44;5064066;28;45283;-72
2021/06/28 08:59:30;;;;;;;;;2.25;2.00;;;;;26.23;46.21;101231.19;5063931;27;45382;-72
2021/06/28 09:01:56;;;;;;;;;2.75;2.75;;;;;26.33;45.78;101246.00;5061638;28;45897;-71
2021/06/28 09:04:21;;;;;;;;;1.75;1.75;;;;;26.56;46.13;101283.06;5078420;28;45583;-72
2021/06/28 09:06:47;;;;;;;;;2.25;2.25;;;;;26.52;45.94;101281.78;5081411;28;46246;-72
2021/06/28 09:09:15;;;;;;;;;3.00;3.00;;;;;26.50;45.87;101282.00;5080374;28;45354;-72
2021/06/28 09:11:43;;;;;;;;;3.00;3.00;;;;;26.51;45.91;101290.84;5081831;27;45330;-72
2021/06/28 09:14:11;;;;;;;;;3.00;3.00;;;;;26.55;45.87;101296.56;5081313;28;45562;-72
2021/06/28 09:16:38;;;;;;;;;3.00;3.00;;;;;26.45;45.83;101280.94;5081615;27;46175;-72
2021/06/28 09:19:06;;;;;;;;;2.00;2.00;;;;;26.38;45.76;101268.41;5080188;28;45359;-71
2021/06/28 09:21:41;;;;;;;;;2.00;2.00;;;;;26.67;45.75;101302.19;5081617;28;45231;-72
2021/06/28 09:24:25;;;;;;;;;3.00;3.00;;;;;26.55;45.96;101286.72;5081277;28;45303;-72
2021/06/28 09:26:54;;;;;;;;;3.50;3.50;;;;;26.59;45.49;101293.34;5079930;28;47041;-72
2021/06/28 09:29:33;;;;;;;;;2.75;2.75;;;;;26.33;45.67;101254.00;5081387;28;45493;-72
2021/06/28 09:31:58;;;;;;;;;1.00;1.00;;;;;26.39;45.75;101269.19;5080913;28;45324;-72
2021/06/28 09:34:24;;;;;;;;;3.00;3.00;;;;;26.65;45.73;101307.69;5081312;28;45496;-72
2021/06/28 09:36:59;;;;;;;;;4.00;4.00;;;;;26.60;45.75;101299.47;5076332;28;46499;-72
2021/06/28 09:39:27;;;;;;;;;2.50;2.50;;;;;26.55;45.44;101296.56;5061071;28;45497;-72
2021/06/28 09:41:58;;;;;;;;;2.00;2.00;;;;;26.46;45.94;101282.59;5060781;28;45250;-72
2021/06/28 09:44:29;;;;;;;;;3.00;3.00;;;;;26.51;45.48;101297.00;5060395;28;45462;-72
2021/06/28 09:47:06;;;;;;;;;2.00;2.00;;;;;26.58;45.75;101302.34;5059120;28;47176;-71
2021/06/28 09:49:32;;;;;;;;;1.25;1.25;;;;;26.65;45.68;101322.91;5060523;28;45178;-72
2021/06/28 09:51:57;;;;;;;;;3.00;2.50;;;;;26.35;45.75;101279.47;5060775;28;45391;-72
2021/06/28 09:54:23;;;;;;;;;3.00;3.00;;;;;26.69;45.91;101330.31;5060671;28;45366;-72
2021/06/28 09:56:51;;;;;;;;;2.50;2.50;;;;;26.70;45.82;101328.47;5061148;28;46400;-72
2021/06/28 09:59:27;;;;;;;;;3.00;3.00;;;;;26.70;45.46;101336.47;5064013;28;45283;-72
2021/06/28 10:02:14;;;;;;;;;2.25;2.25;;;;;26.62;45.78;101321.47;5060746;28;45283;-71
2021/06/28 10:05:01;;;;;;;;;2.50;2.50;;;;;26.35;45.70;101287.47;5066862;28;45355;-71
2021/06/28 10:07:39;;;;;;;;;3.00;3.00;;;;;26.48;45.41;101300.06;5080420;28;45632;-71
2021/06/28 10:10:13;;;;;;;;;4.00;3.25;;;;;26.68;46.03;101341.16;5079980;28;45653;-72
2021/06/28 10:12:53;;;;;;;;;1.25;1.25;;;;;26.68;45.73;101335.81;5042159;28;45372;-72
2021/06/28 10:15:22;;;;;;;;;2.75;2.75;;;;;26.46;45.41;101295.94;5060381;28;45637;-72
2021/06/28 10:17:48;;;;;;;;;3.00;2.00;;;;;26.55;45.83;101317.91;5060577;28;46339;-71
2021/06/28 10:20:17;;;;;;;;;5.00;3.75;;;;;26.55;45.89;101302.75;5059915;27;45423;-72
2021/06/28 10:22:44;;;;;;;;;3.25;2.25;;;;;26.59;45.58;101313.84;5054762;28;45383;-72
2021/06/28 10:25:11;;;;;;;;;3.25;3.25;;;;;26.50;45.80;101302.53;5060145;28;45508;-72
2021/06/28 10:27:37;;;;;;;;;2.75;2.00;;;;;26.38;45.91;101272.91;5060482;28;46319;-72
2021/06/28 10:30:08;;;;;;;;;2.25;2.25;;;;;26.48;45.92;101293.91;5059883;28;45421;-71
2021/06/28 10:32:34;;;;;;;;;3.00;2.00;;;;;26.66;45.83;101322.69;5060460;28;45251;-72
2021/06/28 10:35:00;;;;;;;;;4.00;3.25;;;;;26.46;45.82;101278.09;5059840;28;45371;-72
2021/06/28 10:37:35;;;;;;;;;1.25;1.25;;;;;26.54;45.58;101295.78;5061490;28;46247;-72
2021/06/28 10:40:22;;;;;;;;;2.75;1.00;;;;;26.67;45.72;101312.84;5060250;28;45248;-72
2021/06/28 10:42:56;;;;;;;;;1.75;1.75;;;;;26.55;46.04;101281.41;5059537;28;45438;-71
2021/06/28 10:45:42;;;;;;;;;2.75;2.75;;;;;26.56;45.55;101274.22;5059691;28;45466;-72
2021/06/28 10:48:11;;;;;;;;;3.00;3.00;;;;;26.45;45.92;101268.44;5059715;28;45463;-72
2021/06/28 10:50:56;;;;;;;;;3.75;3.75;;;;;26.67;45.70;101297.66;5059717;28;45300;-72
2021/06/28 10:53:44;;;;;;;;;2.00;2.00;;;;;26.46;45.72;101274.59;5066903;28;45411;-72
2021/06/28 10:56:30;;;;;;;;;2.00;2.00;;;;;26.52;45.68;101290.63;5076747;27;45224;-72
2021/06/28 10:59:01;;;;;;;;;2.25;2.25;;;;;26.49;45.42;101283.00;5064804;28;45408;-72
2021/06/28 11:01:34;;;;;;;;;2.00;2.00;;;;;26.69;45.47;101313.47;5065030;28;45448;-72
2021/06/28 11:04:29;;;;;;;;;3.00;3.00;;;;;26.56;45.26;101295.56;5080035;28;45435;-71
2021/06/28 11:07:10;;;;;;;;;3.00;3.00;;;;;26.55;45.51;101302.75;5065263;28;45614;-72
2021/06/28 11:09:52;;;;;;;;;2.75;2.75;;;;;26.69;45.84;101324.97;5059589;28;45620;-71
2021/06/28 11:12:18;;;;;;;;;5.00;3.00;;;;;26.69;45.51;101332.16;5075731;28;45504;-71
2021/06/28 11:14:45;;;;;;;;;3.00;2.00;;;;;26.45;45.45;101296.97;5076397;28;45363;-71
2021/06/28 11:17:18;;;;;;;;;3.25;2.25;;;;;26.70;45.79;101325.81;5059653;28;45295;-72
2021/06/28 11:19:55;;;;;;;;;3.00;3.00;;;;;26.70;45.41;101325.81;5059016;28;45628;-71
2021/06/28 11:22:27;;;;;;;;;2.25;2.25;;;;;26.71;45.61;101320.25;5059488;28;45550;-72
2021/06/28 11:25:07;;;;;;;;;3.75;2.00;;;;;26.72;45.74;101310.41;5059755;28;45223;-72